createdAt,value
2022-09-14T00:02:02.201Z,6.50
2022-09-14T00:04:32.283Z,7.00
2022-09-14T00:07:02.245Z,8.10
2022-09-14T00:09:32.554Z,7.70
2022-09-14T00:12:01.994Z,7.60
2022-09-14T00:14:31.956Z,7.60
2022-09-14T00:17:01.580Z,7.90
2022-09-14T00:19:34.120Z,7.40
2022-09-14T00:22:15.338Z,7.30
2022-09-14T00:24:49.326Z,7.20
2022-09-14T00:27:17.991Z,6.80
2022-09-14T00:29:48.183Z,7.10
2022-09-14T00:32:19.489Z,6.70
2022-09-14T00:34:50.589Z,6.70
2022-09-14T00:39:52.520Z,7.00
2022-09-14T00:42:25.141Z,6.60
2022-09-14T00:44:59.111Z,6.80
2022-09-14T00:47:30.962Z,7.10
2022-09-14T00:50:06.201Z,6.60
2022-09-14T00:52:40.340Z,6.40
2022-09-14T00:55:15.323Z,6.40
2022-09-14T00:57:48.788Z,6.50
2022-09-14T01:00:26.516Z,6.80
2022-09-14T01:02:58.919Z,6.60
2022-09-14T01:05:43.776Z,6.30
2022-09-14T01:08:26.391Z,6.10
2022-09-14T01:11:35.371Z,6.30
2022-09-14T01:14:47.883Z,6.50
2022-09-14T01:17:28.734Z,6.80
2022-09-14T01:20:28.862Z,6.40
2022-09-14T01:23:03.940Z,6.70
2022-09-14T01:26:29.466Z,6.70
2022-09-14T01:28:57.597Z,6.60
2022-09-14T01:32:00.656Z,6.70
2022-09-14T01:34:36.671Z,6.70
2022-09-14T01:37:36.562Z,7.00
2022-09-14T01:40:27.445Z,6.80
2022-09-14T01:43:42.074Z,6.80
2022-09-14T01:46:27.605Z,7.00
2022-09-14T01:49:28.498Z,7.60
2022-09-14T01:52:11.680Z,7.80
2022-09-14T01:54:52.062Z,7.80
2022-09-14T01:57:37.729Z,7.90
2022-09-14T02:00:11.653Z,7.50
2022-09-14T02:02:51.278Z,7.20
2022-09-14T02:05:31.245Z,7.70
2022-09-14T02:08:00.688Z,7.60
2022-09-14T02:10:31.610Z,7.90
2022-09-14T02:13:06.804Z,8.10
2022-09-14T02:15:37.008Z,7.50
2022-09-14T02:18:05.697Z,7.70
2022-09-14T02:20:47.918Z,7.80
2022-09-14T02:23:18.587Z,8.60
2022-09-14T02:25:47.761Z,7.50
2022-09-14T02:28:17.669Z,7.30
2022-09-14T02:30:49.740Z,7.50
2022-09-14T02:33:34.355Z,6.60
2022-09-14T02:36:16.090Z,7.30
2022-09-14T02:38:56.734Z,7.50
2022-09-14T02:41:48.543Z,7.70
2022-09-14T02:44:34.447Z,7.20
2022-09-14T02:47:10.906Z,7.20
2022-09-14T02:49:50.648Z,7.60
2022-09-14T02:52:50.157Z,7.70
2022-09-14T02:55:26.235Z,7.80
2022-09-14T02:58:11.925Z,7.90
2022-09-14T03:00:43.013Z,7.20
2022-09-14T03:03:12.301Z,7.90
2022-09-14T03:05:42.683Z,7.30
2022-09-14T03:08:12.316Z,7.40
2022-09-14T03:10:42.526Z,7.90
2022-09-14T03:13:11.277Z,7.10
2022-09-14T03:15:39.455Z,7.10
2022-09-14T03:18:12.305Z,7.70
2022-09-14T03:20:43.946Z,7.30
2022-09-14T03:23:13.209Z,7.80
2022-09-14T03:25:44.506Z,7.90
2022-09-14T03:28:14.268Z,7.60
2022-09-14T03:30:41.724Z,7.80
2022-09-14T03:33:09.210Z,8.20
2022-09-14T03:35:37.969Z,8.60
2022-09-14T03:38:04.558Z,8.50
2022-09-14T03:40:32.887Z,8.20
2022-09-14T03:43:00.633Z,7.80
2022-09-14T03:45:27.704Z,8.30
2022-09-14T03:47:55.142Z,7.30
2022-09-14T03:50:23.523Z,8.20
2022-09-14T03:52:52.203Z,7.90
2022-09-14T03:55:23.349Z,8.80
2022-09-14T03:57:53.897Z,9.50
2022-09-14T04:00:21.324Z,9.60
2022-09-14T04:02:51.510Z,9.20
2022-09-14T04:05:21.689Z,9.20
2022-09-14T04:07:49.587Z,9.70
2022-09-14T04:10:17.670Z,10.40
2022-09-14T04:12:48.713Z,8.80
2022-09-14T04:15:18.293Z,10.00
2022-09-14T04:17:52.381Z,9.10
2022-09-14T04:20:19.860Z,9.00
2022-09-14T04:22:47.974Z,7.90
2022-09-14T04:25:37.372Z,8.20
2022-09-14T04:28:19.743Z,8.50
2022-09-14T04:31:04.449Z,8.60
2022-09-14T04:33:35.071Z,8.20
2022-09-14T04:36:05.343Z,8.50
2022-09-14T04:38:35.382Z,8.60
2022-09-14T04:41:05.443Z,8.30
2022-09-14T04:43:32.155Z,8.10
2022-09-14T04:46:04.554Z,7.80
2022-09-14T04:48:36.139Z,7.60
2022-09-14T04:51:07.908Z,8.10
2022-09-14T04:53:37.292Z,8.20
2022-09-14T04:56:07.845Z,7.50
2022-09-14T04:58:39.620Z,8.80
2022-09-14T05:01:10.444Z,8.80
2022-09-14T05:03:40.127Z,9.40
2022-09-14T05:06:18.425Z,9.50
2022-09-14T05:08:46.086Z,9.00
2022-09-14T05:11:17.267Z,8.40
2022-09-14T05:13:49.998Z,8.40
2022-09-14T05:16:29.686Z,9.80
2022-09-14T05:19:19.525Z,10.70
2022-09-14T05:22:01.529Z,10.00
2022-09-14T05:24:29.417Z,10.40
2022-09-14T05:27:01.624Z,10.70
2022-09-14T05:29:32.145Z,9.50
2022-09-14T05:31:59.357Z,7.90
2022-09-14T05:34:28.316Z,8.70
2022-09-14T05:36:57.053Z,9.10
2022-09-14T05:39:25.312Z,8.60
2022-09-14T05:41:54.076Z,9.60
2022-09-14T05:44:21.287Z,9.00
2022-09-14T05:46:48.220Z,8.50
2022-09-14T05:49:15.479Z,9.20
2022-09-14T05:51:42.350Z,8.50
2022-09-14T05:54:16.808Z,9.20
2022-09-14T05:56:45.051Z,8.60
2022-09-14T05:59:14.395Z,8.90
2022-09-14T06:04:12.479Z,9.10
2022-09-14T06:06:40.375Z,8.00
2022-09-14T06:09:08.662Z,8.10
2022-09-14T06:11:38.975Z,7.60
2022-09-14T06:14:06.561Z,8.70
2022-09-14T06:16:35.178Z,7.70
2022-09-14T06:19:01.935Z,8.20
2022-09-14T06:21:32.730Z,8.40
2022-09-14T06:24:01.718Z,9.20
2022-09-14T06:26:30.278Z,8.00
2022-09-14T06:28:57.073Z,8.90
2022-09-14T06:31:25.752Z,9.40
2022-09-14T06:33:53.841Z,8.90
2022-09-14T06:36:26.082Z,9.10
2022-09-14T06:38:54.620Z,8.80
2022-09-14T06:41:28.495Z,9.60
2022-09-14T06:43:58.214Z,8.30
2022-09-14T06:46:29.347Z,8.80
2022-09-14T06:49:02.661Z,8.10
2022-09-14T06:51:38.422Z,8.80
2022-09-14T06:54:06.186Z,9.10
2022-09-14T06:56:36.263Z,8.60
2022-09-14T06:59:04.528Z,8.20
2022-09-14T07:01:33.404Z,8.40
2022-09-14T07:04:02.386Z,8.40
2022-09-14T07:08:57.944Z,8.60
2022-09-14T07:11:27.181Z,8.30
2022-09-14T07:13:56.722Z,8.50
2022-09-14T07:16:24.075Z,7.70
2022-09-14T07:18:54.822Z,7.60
2022-09-14T07:21:23.867Z,8.90
2022-09-14T07:23:52.687Z,7.70
2022-09-14T07:26:38.915Z,8.80
2022-09-14T07:29:14.783Z,8.20
2022-09-14T07:31:45.726Z,8.00
2022-09-14T07:34:13.026Z,8.70
2022-09-14T07:36:40.989Z,8.50
2022-09-14T07:39:11.018Z,8.20
2022-09-14T07:41:37.677Z,7.90
2022-09-14T07:44:06.788Z,7.40
2022-09-14T07:49:06.337Z,7.60
2022-09-14T07:51:34.501Z,7.30
2022-09-14T07:54:01.669Z,8.30
2022-09-14T07:56:29.163Z,7.60
2022-09-14T07:59:11.505Z,7.50
2022-09-14T08:01:38.688Z,7.50
2022-09-14T08:04:07.312Z,7.30
2022-09-14T08:06:34.064Z,8.00
2022-09-14T08:09:09.351Z,6.90
2022-09-14T08:11:36.273Z,7.30
2022-09-14T08:14:12.115Z,7.70
2022-09-14T08:16:39.695Z,7.40
2022-09-14T08:19:14.295Z,6.90
2022-09-14T08:21:51.427Z,6.30
2022-09-14T08:24:51.563Z,5.80
2022-09-14T08:27:31.486Z,5.90
2022-09-14T08:30:49.680Z,6.10
2022-09-14T08:37:50.090Z,6.60
2022-09-14T08:40:20.392Z,7.30
2022-09-14T08:43:20.538Z,7.10
2022-09-14T08:47:33.398Z,6.30
2022-09-14T08:55:14.945Z,7.80
2022-09-14T08:57:52.778Z,6.80
2022-09-14T09:00:38.124Z,8.20
2022-09-14T09:03:39.604Z,6.80
2022-09-14T09:06:16.155Z,6.70
2022-09-14T09:09:02.353Z,7.00
2022-09-14T09:11:39.070Z,6.10
2022-09-14T09:14:18.533Z,6.40
2022-09-14T09:16:48.872Z,5.10
2022-09-14T09:19:28.457Z,5.20
2022-09-14T09:21:56.642Z,4.50
2022-09-14T09:24:39.120Z,4.90
2022-09-14T09:27:14.705Z,5.30
2022-09-14T09:29:42.925Z,5.60
2022-09-14T09:32:16.419Z,4.70
2022-09-14T09:35:06.481Z,4.70
2022-09-14T09:37:52.156Z,4.50
2022-09-14T09:40:29.550Z,4.10
2022-09-14T09:43:08.636Z,4.10
2022-09-14T09:45:58.818Z,3.70
2022-09-14T09:48:38.221Z,4.00
2022-09-14T09:51:10.673Z,3.60
2022-09-14T09:53:47.312Z,3.30
2022-09-14T09:56:26.698Z,4.20
2022-09-14T09:58:54.359Z,4.20
2022-09-14T10:01:28.512Z,3.70
2022-09-14T10:04:18.341Z,4.50
2022-09-14T10:06:51.475Z,4.20
2022-09-14T10:09:20.725Z,3.90
2022-09-14T10:11:56.767Z,3.90
2022-09-14T10:14:30.815Z,4.00
2022-09-14T10:17:07.329Z,3.50
2022-09-14T10:19:34.257Z,3.60
2022-09-14T10:22:16.662Z,3.70
2022-09-14T10:24:54.551Z,4.70
2022-09-14T10:27:53.538Z,5.40
2022-09-14T10:30:32.343Z,4.30
2022-09-14T10:33:01.980Z,4.40
2022-09-14T10:35:56.250Z,4.80
2022-09-14T10:38:34.439Z,4.20
2022-09-14T10:41:22.462Z,4.60
2022-09-14T10:44:04.888Z,4.30
2022-09-14T10:46:54.991Z,3.50
2022-09-14T10:49:42.511Z,3.80
2022-09-14T10:52:29.608Z,3.80
2022-09-14T10:55:23.074Z,3.70
2022-09-14T10:57:58.242Z,3.70
2022-09-14T11:00:30.388Z,3.60
2022-09-14T11:03:27.170Z,4.30
2022-09-14T11:06:15.513Z,4.50
2022-09-14T11:11:24.217Z,4.20
2022-09-14T11:14:10.893Z,4.10
2022-09-14T11:16:55.821Z,4.10
2022-09-14T11:19:29.211Z,4.20
2022-09-14T11:22:08.102Z,3.70
2022-09-14T11:27:11.235Z,3.60
2022-09-14T11:29:46.308Z,3.80
2022-09-14T11:32:22.331Z,4.20
2022-09-14T11:35:12.164Z,4.10
2022-09-14T11:37:46.541Z,4.30
2022-09-14T11:40:23.566Z,4.00
2022-09-14T11:43:10.085Z,26.60
2022-09-14T11:45:52.119Z,15.70
2022-09-14T11:48:58.045Z,9.60
2022-09-14T11:51:32.492Z,5.40
2022-09-14T11:53:59.055Z,5.10
2022-09-14T11:56:31.562Z,6.10
2022-09-14T11:59:01.508Z,4.80
2022-09-14T12:01:36.968Z,4.40
2022-09-14T12:04:07.883Z,4.60
2022-09-14T12:06:37.535Z,5.20
2022-09-14T12:09:14.777Z,5.00
2022-09-14T12:11:45.019Z,4.60
2022-09-14T12:14:23.756Z,4.50
2022-09-14T12:19:52.148Z,5.10
2022-09-14T12:22:33.877Z,5.00
2022-09-14T12:25:22.565Z,4.40
2022-09-14T12:27:49.730Z,4.80
2022-09-14T12:30:41.312Z,4.30
2022-09-14T12:33:33.680Z,5.30
2022-09-14T12:36:10.810Z,3.50
2022-09-14T12:38:40.770Z,5.20
2022-09-14T12:41:10.612Z,5.90
2022-09-14T12:43:37.360Z,4.90
2022-09-14T12:46:19.185Z,4.10
2022-09-14T12:48:48.394Z,4.00
2022-09-14T12:51:25.025Z,5.00
2022-09-14T12:54:34.893Z,4.60
2022-09-14T12:57:06.948Z,6.50
2022-09-14T13:00:11.752Z,6.20
2022-09-14T13:02:56.921Z,5.40
2022-09-14T13:05:28.406Z,5.00
2022-09-14T13:07:55.899Z,5.30
2022-09-14T13:10:35.269Z,5.50
2022-09-14T13:13:14.997Z,5.60
2022-09-14T13:16:03.046Z,5.30
2022-09-14T13:18:35.394Z,5.40
2022-09-14T13:21:21.908Z,4.80
2022-09-14T13:23:48.818Z,5.90
2022-09-14T13:26:17.509Z,5.00
2022-09-14T13:28:46.334Z,6.30
2022-09-14T13:31:18.299Z,6.20
2022-09-14T13:33:51.078Z,5.00
2022-09-14T13:36:22.438Z,5.80
2022-09-14T13:38:50.193Z,6.20
2022-09-14T13:41:18.760Z,5.90
2022-09-14T13:43:49.060Z,6.30
2022-09-14T13:46:20.115Z,5.50
2022-09-14T13:48:47.343Z,5.00
2022-09-14T13:51:14.533Z,5.40
2022-09-14T13:53:49.912Z,5.80
2022-09-14T13:56:19.447Z,5.30
2022-09-14T13:58:48.707Z,5.60
2022-09-14T14:01:27.444Z,5.30
2022-09-14T14:03:55.205Z,6.10
2022-09-14T14:06:28.809Z,5.30
2022-09-14T14:09:09.744Z,6.00
2022-09-14T14:11:45.202Z,6.20
2022-09-14T14:14:32.113Z,6.70
2022-09-14T14:17:23.345Z,6.80
2022-09-14T14:19:55.139Z,5.50
2022-09-14T14:22:28.526Z,6.10
2022-09-14T14:25:12.871Z,6.10
2022-09-14T14:27:44.140Z,8.20
2022-09-14T14:30:15.804Z,6.10
2022-09-14T14:32:49.127Z,6.40
2022-09-14T14:35:19.404Z,5.90
2022-09-14T14:37:47.219Z,5.70
2022-09-14T14:40:16.077Z,6.50
2022-09-14T14:42:44.338Z,5.50
2022-09-14T14:45:18.465Z,6.50
2022-09-14T14:47:50.055Z,7.00
2022-09-14T14:50:22.365Z,7.80
2022-09-14T14:52:51.147Z,7.40
2022-09-14T14:57:45.794Z,6.70
2022-09-14T15:00:17.242Z,6.80
2022-09-14T15:02:44.241Z,6.70
2022-09-14T15:05:12.044Z,6.30
2022-09-14T15:07:58.231Z,7.10
2022-09-14T15:12:59.597Z,6.20
2022-09-14T15:15:26.355Z,6.30
2022-09-14T15:17:53.608Z,5.60
2022-09-14T15:20:22.837Z,5.30
2022-09-14T15:22:51.042Z,6.80
2022-09-14T15:25:19.436Z,6.70
2022-09-14T15:27:47.264Z,6.80
2022-09-14T15:30:16.141Z,6.70
2022-09-14T15:32:43.407Z,6.90
2022-09-14T15:35:13.582Z,7.20
2022-09-14T15:37:41.307Z,7.50
2022-09-14T15:40:09.266Z,7.20
2022-09-14T15:42:36.012Z,7.20
2022-09-14T15:45:05.319Z,6.30
2022-09-14T15:47:35.610Z,6.60
2022-09-14T15:50:05.355Z,6.70
2022-09-14T15:55:00.957Z,6.20
2022-09-14T15:57:27.314Z,6.70
2022-09-14T15:59:54.317Z,6.10
2022-09-14T16:02:21.390Z,6.40
2022-09-14T16:04:48.047Z,5.60
2022-09-14T16:07:14.820Z,6.10
2022-09-14T16:09:41.614Z,5.70
2022-09-14T16:12:10.122Z,6.90
2022-09-14T16:14:36.465Z,6.00
2022-09-14T16:17:04.456Z,5.80
2022-09-14T16:19:31.282Z,6.10
2022-09-14T16:21:57.830Z,5.80
2022-09-14T16:24:25.150Z,5.50
2022-09-14T16:26:51.971Z,5.60
2022-09-14T16:29:20.217Z,6.00
2022-09-14T16:31:47.868Z,5.70
2022-09-14T16:34:21.235Z,6.20
2022-09-14T16:36:48.561Z,6.70
2022-09-14T16:39:18.870Z,6.20
2022-09-14T16:41:46.023Z,5.90
2022-09-14T16:44:20.208Z,6.00
2022-09-14T16:46:48.579Z,5.90
2022-09-14T16:49:16.278Z,6.40
2022-09-14T16:51:43.071Z,6.20
2022-09-14T16:54:14.286Z,5.40
2022-09-14T16:56:41.211Z,5.70
2022-09-14T16:59:07.840Z,6.00
2022-09-14T17:01:37.565Z,5.90
2022-09-14T17:04:08.895Z,5.60
2022-09-14T17:06:37.786Z,5.70
2022-09-14T17:09:07.591Z,4.70
2022-09-14T17:11:36.017Z,5.50
2022-09-14T17:14:03.279Z,4.70
2022-09-14T17:16:30.064Z,5.30
2022-09-14T17:19:00.133Z,4.90
2022-09-14T17:21:29.927Z,5.20
2022-09-14T17:23:57.719Z,4.30
2022-09-14T17:26:25.306Z,4.50
2022-09-14T17:28:55.562Z,5.00
2022-09-14T17:31:30.704Z,5.10
2022-09-14T17:34:00.296Z,4.40
2022-09-14T17:36:27.825Z,4.40
2022-09-14T17:38:59.142Z,4.60
2022-09-14T17:41:27.558Z,4.80
2022-09-14T17:43:57.151Z,5.10
2022-09-14T17:46:24.674Z,5.30
2022-09-14T17:48:51.505Z,4.80
2022-09-14T17:51:21.338Z,5.00
2022-09-14T17:53:51.390Z,4.60
2022-09-14T17:56:20.195Z,5.30
2022-09-14T17:58:48.319Z,5.20
2022-09-14T18:01:24.100Z,4.90
2022-09-14T18:03:53.703Z,5.70
2022-09-14T18:06:23.691Z,6.20
2022-09-14T18:08:55.578Z,5.20
2022-09-14T18:11:24.693Z,5.40
2022-09-14T18:13:51.245Z,6.80
2022-09-14T18:16:20.963Z,6.80
2022-09-14T18:18:47.692Z,6.70
2022-09-14T18:21:16.423Z,6.40
2022-09-14T18:23:43.327Z,6.60
2022-09-14T18:26:10.302Z,6.30
2022-09-14T18:28:36.657Z,6.40
2022-09-14T18:31:09.788Z,6.80
2022-09-14T18:33:36.811Z,6.40
2022-09-14T18:36:05.461Z,6.00
2022-09-14T18:38:33.052Z,6.40
2022-09-14T18:41:08.184Z,7.40
2022-09-14T18:43:35.553Z,6.80
2022-09-14T18:46:05.998Z,6.70
2022-09-14T18:48:33.980Z,6.40
2022-09-14T18:51:04.343Z,6.20
2022-09-14T18:53:31.391Z,5.80
2022-09-14T18:56:07.764Z,6.50
2022-09-14T18:58:36.357Z,6.50
2022-09-14T19:01:03.733Z,7.10
2022-09-14T19:03:31.895Z,6.70
2022-09-14T19:06:09.578Z,6.50
2022-09-14T19:08:36.789Z,6.70
2022-09-14T19:11:26.618Z,6.30
2022-09-14T19:14:01.129Z,6.80
2022-09-14T19:16:29.276Z,7.00
2022-09-14T19:18:55.872Z,5.70
2022-09-14T19:21:25.375Z,5.80
2022-09-14T19:24:07.033Z,5.90
2022-09-14T19:26:45.086Z,6.70
2022-09-14T19:29:14.602Z,6.50
2022-09-14T19:34:11.011Z,5.60
2022-09-14T19:36:38.048Z,6.40
2022-09-14T19:39:05.295Z,5.90
2022-09-14T19:41:33.385Z,6.80
2022-09-14T19:44:04.234Z,6.90
2022-09-14T19:46:31.539Z,6.20
2022-09-14T19:48:59.341Z,6.40
2022-09-14T19:51:27.937Z,6.70
2022-09-14T19:53:56.892Z,6.40
2022-09-14T19:56:26.743Z,6.50
2022-09-14T19:58:56.820Z,6.10
2022-09-14T20:01:25.650Z,6.40
2022-09-14T20:03:53.210Z,6.50
2022-09-14T20:06:26.054Z,6.10
2022-09-14T20:08:55.370Z,6.40
2022-09-14T20:11:23.565Z,7.70
2022-09-14T20:13:54.141Z,7.40
2022-09-14T20:16:29.912Z,6.70
2022-09-14T20:18:59.547Z,6.90
2022-09-14T20:21:27.335Z,7.20
2022-09-14T20:24:15.539Z,6.80
2022-09-14T20:26:44.945Z,6.50
2022-09-14T20:29:11.776Z,6.30
2022-09-14T20:31:38.339Z,6.80
2022-09-14T20:34:05.003Z,6.70
2022-09-14T20:36:31.971Z,7.00
2022-09-14T20:38:59.128Z,7.30
2022-09-14T20:41:29.109Z,7.00
2022-09-14T20:43:55.840Z,7.40
2022-09-14T20:46:37.779Z,7.20
2022-09-14T20:49:05.842Z,7.00
2022-09-14T20:51:35.337Z,7.40
2022-09-14T20:54:02.039Z,7.80
2022-09-14T20:56:32.145Z,8.00
2022-09-14T20:59:00.766Z,7.90
2022-09-14T21:01:32.749Z,8.00
2022-09-14T21:04:06.069Z,7.60
2022-09-14T21:06:36.183Z,8.80
2022-09-14T21:09:04.795Z,8.00
2022-09-14T21:11:32.401Z,8.20
2022-09-14T21:14:00.344Z,8.70
2022-09-14T21:16:33.303Z,8.60
2022-09-14T21:19:06.611Z,8.40
2022-09-14T21:21:33.944Z,8.40
2022-09-14T21:24:01.201Z,8.90
2022-09-14T21:26:29.458Z,8.00
2022-09-14T21:28:58.782Z,7.00
2022-09-14T21:31:27.987Z,8.40
2022-09-14T21:33:58.294Z,8.10
2022-09-14T21:36:35.286Z,8.60
2022-09-14T21:39:09.244Z,8.20
2022-09-14T21:41:37.708Z,8.60
2022-09-14T21:44:04.791Z,8.70
2022-09-14T21:46:33.161Z,8.70
2022-09-14T21:48:59.818Z,8.80
2022-09-14T21:51:29.527Z,8.70
2022-09-14T21:53:58.353Z,8.90
2022-09-14T21:56:27.286Z,8.10
2022-09-14T21:58:56.991Z,8.20
2022-09-14T22:01:23.677Z,8.10
2022-09-14T22:03:52.187Z,8.70
2022-09-14T22:08:48.571Z,8.30
2022-09-14T22:11:21.172Z,7.70
2022-09-14T22:13:57.881Z,8.60
2022-09-14T22:16:26.183Z,8.00
2022-09-14T22:18:55.814Z,8.40
2022-09-14T22:21:24.317Z,9.20
2022-09-14T22:23:56.388Z,9.00
2022-09-14T22:26:24.656Z,9.40
2022-09-14T22:31:24.606Z,10.00
2022-09-14T22:33:54.877Z,9.70
2022-09-14T22:36:22.675Z,8.90
2022-09-14T22:38:49.533Z,8.70
2022-09-14T22:41:18.995Z,8.80
2022-09-14T22:46:14.052Z,9.60
2022-09-14T22:48:41.031Z,8.70
2022-09-14T22:51:10.444Z,8.60
2022-09-14T22:53:37.406Z,9.00
2022-09-14T22:56:19.652Z,8.30
2022-09-14T22:58:47.423Z,7.90
2022-09-14T23:01:27.565Z,8.00
2022-09-14T23:04:01.467Z,8.00
2022-09-14T23:06:31.585Z,7.90
2022-09-14T23:08:59.773Z,7.90
2022-09-14T23:11:26.455Z,8.80
2022-09-14T23:13:54.057Z,8.00
2022-09-14T23:16:25.378Z,8.10
2022-09-14T23:18:53.935Z,8.30
2022-09-14T23:21:21.012Z,8.20
2022-09-14T23:23:55.782Z,8.90
2022-09-14T23:26:23.367Z,9.10
2022-09-14T23:29:00.968Z,10.10
2022-09-14T23:31:29.532Z,9.60
2022-09-14T23:33:58.125Z,9.40
2022-09-14T23:36:25.757Z,9.60
2022-09-14T23:38:52.930Z,10.30
2022-09-14T23:41:22.307Z,10.10
2022-09-14T23:43:49.536Z,9.90
2022-09-14T23:46:17.423Z,11.10
2022-09-14T23:48:45.219Z,10.00
2022-09-14T23:51:12.843Z,11.00
2022-09-14T23:53:40.085Z,11.20
2022-09-14T23:56:07.456Z,10.10
2022-09-14T23:58:34.435Z,10.90
